Stations météo

réclame
Mon MeteoGroup
Wasserkuppe, Allemagne (10544): Température de l'air & dewpoint: 16.10.2018 16:00:00 - 22.10.2018 16:00:00 (CEST)Wasserkuppe, Allemagne (10544): Température de l'air 5cm & Température de l'air -5cm: 16.10.2018 16:00:00 - 22.10.2018 16:00:00 (CEST)Wasserkuppe, Allemagne (10544): Température de l'air -20cm & Température de l'air -100cm: 16.10.2018 16:00:00 - 22.10.2018 16:00:00 (CEST)Wasserkuppe, Allemagne (10544): Vitesse du vent & gusts: 16.10.2018 16:00:00 - 22.10.2018 16:00:00 (CEST)Wasserkuppe, Allemagne (10544): Direction du vent: 16.10.2018 16:00:00 - 22.10.2018 16:00:00 (CEST)Wasserkuppe, Allemagne (10544): visibility: 16.10.2018 16:00:00 - 22.10.2018 16:00:00 (CEST)Wasserkuppe, Allemagne (10544): Ensoleillement: 16.10.2018 16:00:00 - 22.10.2018 16:00:00 (CEST)Wasserkuppe, Allemagne (10544): Quantités de précipitations: 16.10.2018 16:00:00 - 22.10.2018 16:00:00 (CEST)
Date & Time tt [°C] td [°C] tt 5cm [°C] tt -5cm [°C] tt -20cm [°C] tt -100cm [°C] ff [km/h] ff [knt] fx [km/h] fx [knt] dd vv [km] sd [min] rr [mm]
22.10.2018 16:00:00 5,1 5,0 5,2 7,1 7,7 10,4 28 15 35 19 N 0,1 0 0,1
22.10.2018 15:00:00 5,5 5,2 5,6 7,3 7,6 10,4 23 12 29 16 N 0,1 0 0,1
22.10.2018 14:00:00 6,4 4,7 6,2 7,2 7,6 10,4 21 12 31 17 N 5 0 0,0
22.10.2018 13:00:00 7,6 4,4 8,1 6,4 7,7 10,4 16 9 24 13 NNW 30 10 0,0
22.10.2018 12:00:00 7,4 2,6 8,5 4,9 7,8 10,4 19 10 27 15 NW 40 0 0,0
22.10.2018 11:00:00 7,7 2,5 8,2 3,4 7,9 10,4 15 8 22 12 NW 35 27 0,0
22.10.2018 10:00:00 7,2 2,1 5,5 2,8 8,0 10,4 6 3 12 6 WNW 35 54 0,0
22.10.2018 09:00:00 4,9 1,3 3,2 2,8 8,1 10,4 8 4 11 6 W 30 29 0,0
22.10.2018 08:00:00 4,3 0,7 1,4 2,9 8,2 10,5 8 5 13 7 WNW 30 0 0,0
22.10.2018 07:00:00 4,4 0,9 1,8 3,0 8,3 10,5 9 5 15 8 WNW 30 0 0,0
22.10.2018 06:00:00 4,6 0,9 1,2 3,1 8,4 10,5 8 4 14 8 W 32 0 0,0
22.10.2018 05:00:00 3,8 0,9 0,7 3,3 8,6 10,5 10 5 12 6 WSW 31 0 0,0
22.10.2018 04:00:00 3,6 1,2 1,5 3,6 8,7 10,5 8 4 10 5 SW 32 0 0,0
22.10.2018 03:00:00 3,7 1,1 0,2 4,0 8,8 10,5 9 5 14 7 SSW 40 0 0,0
22.10.2018 02:00:00 4,4 0,9 1,9 4,2 8,9 10,5 10 6 16 9 S 39 0 0,0
22.10.2018 01:00:00 4,7 1,2 0,5 4,6 9,0 10,5 12 7 18 10 SSE 41 0 0,0
22.10.2018 00:00:00 4,8 1,8 0,9 5,0 9,0 10,5 13 7 15 8 SSE 30 0 0,0
21.10.2018 23:00:00 5,2 2,1 1,6 5,6 9,1 10,5 11 6 15 8 S 31 0 0,0
21.10.2018 22:00:00 4,8 1,9 1,2 6,2 9,1 10,5 8 4 10 5 SSE 34 0 0,0
21.10.2018 21:00:00 5,2 2,2 1,6 6,9 9,1 10,5 4 2 9 5 S 34 0 0,0
21.10.2018 20:00:00 5,1 2,1 1,1 7,8 9,0 10,5 8 4 13 7 SSE 31 0 0,0
21.10.2018 19:00:00 5,7 2,0 2,4 8,8 8,9 10,5 9 5 14 7 SSE 32 0 0,0
21.10.2018 18:00:00 8,1 3,1 5,2 9,8 8,8 10,5 4 2 8 4 SE 35 46 0,0
21.10.2018 17:00:00 9,4 2,9 9,7 10,1 8,7 10,5 6 3 14 7 NNE 39 56 0,0
21.10.2018 16:00:00 10,7 3,6 12,1 9,6 8,6 10,5 7 4 11 6 N 33 60 0,0
21.10.2018 15:00:00 8,7 2,8 8,6 9,0 8,6 10,5 3 2 14 7 N 31 7 0,0
21.10.2018 14:00:00 9,7 4,0 11,8 8,1 8,6 10,5 6 3 14 8 ESE 32 20 0,0
21.10.2018 13:00:00 7,8 3,6 8,1 7,6 8,6 10,5 9 5 21 11 ESE 23 21 0,0
21.10.2018 12:00:00 8,1 3,7 8,7 6,5 8,7 10,5 12 6 21 11 E 22 20 0,0
21.10.2018 11:00:00 7,7 5,1 8,4 5,5 8,8 10,5 7 4 15 8 NE 14 40 0,0
21.10.2018 10:00:00 6,2 5,2 5,4 5,0 8,9 10,5 8 4 16 9 E 10 38 0,0
21.10.2018 09:00:00 5,0 4,7 5,2 4,6 9,0 10,5 6 3 14 8 E 0,1 0 0,0
21.10.2018 08:00:00 4,9 4,2 2,8 4,8 9,1 10,5 10 6 16 9 ENE 7 0 0,0
21.10.2018 07:00:00 5,5 4,4 4,5 4,7 9,2 10,5 8 4 15 8 ENE 13 0 0,0
21.10.2018 06:00:00 5,2 2,7 4,1 4,5 9,3 10,5 10 6 18 10 ENE 42 0 0,0
21.10.2018 05:00:00 5,1 2,5 4,0 4,3 9,4 10,5 11 6 18 10 ENE 50 0 0,0
21.10.2018 04:00:00 4,6 2,0 1,6 4,5 9,6 10,5 10 6 18 10 ENE 49 0 0,0
21.10.2018 03:00:00 4,5 2,3 1,7 4,9 9,7 10,5 11 6 18 10 NE 42 0 0,0
21.10.2018 02:00:00 4,3 2,2 1,2 5,4 9,8 10,5 10 5 21 11 E 47 0 0,0
21.10.2018 01:00:00 4,1 2,7 2,3 5,8 9,9 10,5 15 8 27 14 ENE 26 0 0,0
21.10.2018 00:00:00 4,4 2,7 2,8 6,1 10,0 10,5 18 10 32 17 NNE 29 0 0,0
20.10.2018 23:00:00 4,7 2,6 3,2 6,6 10,0 10,5 22 12 30 16 NNE 27 0 0,0
20.10.2018 22:00:00 4,9 2,6 3,3 7,1 10,1 10,5 22 12 32 17 NNE 28 0 0,0
20.10.2018 21:00:00 5,0 2,7 3,6 7,7 10,1 10,5 22 12 31 17 NNE 24 0 0,0
20.10.2018 20:00:00 4,9 2,5 3,0 8,6 10,0 10,5 21 11 33 18 NNE 20 0 0,0
20.10.2018 19:00:00 5,5 2,7 3,9 9,7 10,0 10,5 22 12 29 16 N 25 0 0,0
20.10.2018 18:00:00 7,1 3,7 5,7 10,8 9,9 10,5 18 10 27 14 NNW 23 21 0,0
20.10.2018 17:00:00 9,6 4,5 9,8 11,4 9,8 10,5 18 10 27 15 NNW 23 54 0,0
20.10.2018 16:00:00 9,9 3,3 10,6 11,2 9,8 10,5 13 7 22 12 NW 25 60 0,0
20.10.2018 15:00:00 10,2 2,6 11,8 10,3 9,8 10,5 14 8 22 12 WNW 23 60 0,0
20.10.2018 14:00:00 9,7 3,1 11,8 8,9 9,9 10,5 14 8 23 12 NNW 21 54 0,0
20.10.2018 13:00:00 9,3 4,4 10,3 7,8 9,9 10,5 16 9 22 12 N 19 55 0,0
20.10.2018 12:00:00 8,3 4,3 7,7 7,2 10,1 10,5 11 6 21 11 N 19 60 0,0
20.10.2018 11:00:00 7,6 5,3 7,2 6,6 10,2 10,5 16 8 24 13 N 11 50 0,0
20.10.2018 10:00:00 7,1 4,3 5,8 6,1 10,3 10,5 19 10 24 13 N 17 60 0,0
20.10.2018 09:00:00 6,0 2,7 4,0 6,3 10,4 10,5 18 10 20 11 N 29 45 0,0
20.10.2018 08:00:00 5,4 2,8 2,1 6,8 10,5 10,5 12 7 21 12 NNE 24 0 0,0
20.10.2018 07:00:00 5,8 4,2 3,5 7,4 10,6 10,5 19 11 26 14 N 13 0 0,0
20.10.2018 06:00:00 6,3 4,2 4,6 8,0 10,6 10,5 22 12 30 16 N 18 0 0,0
20.10.2018 05:00:00 6,6 4,0 4,3 8,6 10,7 10,5 19 10 23 12 N 19 0 0,0
20.10.2018 04:00:00 7,3 4,5 6,7 9,1 10,7 10,5 15 8 18 10 N 21 0 0,0
20.10.2018 03:00:00 8,0 7,4 7,4 9,3 10,8 10,5 11 6 13 7 N 4,8 0 0,0
20.10.2018 02:00:00 8,4 7,7 7,9 9,4 10,8 10,5 5 3 8 4 NW 4,9 0 0,0
20.10.2018 01:00:00 8,2 7,5 7,7 9,8 10,8 10,5 6 4 9 5 W 6 0 0,0
20.10.2018 00:00:00 8,7 7,0 8,0 10,1 10,9 10,5 5 3 8 4 SSW 8 0 0,0
19.10.2018 23:00:00 8,8 7,2 8,5 10,3 10,9 10,5 5 3 7 4 SSW 8 0 0,0
19.10.2018 22:00:00 8,8 6,9 8,5 10,6 10,8 10,5 5 3 7 4 SW 11 0 0,0
19.10.2018 21:00:00 8,9 7,0 8,4 10,9 10,8 10,5 3 1 8 5 SSE 10 0 0,0
19.10.2018 20:00:00 8,5 7,0 7,8 11,4 10,7 10,5 8 5 14 8 SE 9 0 0,0
19.10.2018 19:00:00 8,9 7,1 7,6 12,1 10,6 10,5 11 6 13 7 SE 9 0 0,0
19.10.2018 18:00:00 10,2 7,5 9,8 12,6 10,5 10,5 8 4 9 5 SE 12 0 0,0
19.10.2018 17:00:00 11,0 7,4 10,8 13,0 10,4 10,5 9 5 13 7 SE 17 0 0,0
19.10.2018 16:00:00 11,0 6,7 12,2 12,8 10,3 10,5 9 5 15 8 SE 20 0 0,0
19.10.2018 15:00:00 10,6 7,2 11,2 12,8 10,3 10,5 10 5 17 9 SSE 17 0 0,0
19.10.2018 14:00:00 11,3 7,5 12,9 12,2 10,2 10,5 12 6 20 11 ESE 15 2 0,0
19.10.2018 13:00:00 10,6 7,5 11,9 11,3 10,2 10,5 14 7 19 11 SE 16 8 0,0
19.10.2018 12:00:00 10,1 7,4 11,8 10,2 10,2 10,5 10 6 19 10 E 11 30 0,0
19.10.2018 11:00:00 9,4 7,9 10,0 9,2 10,3 10,5 13 7 19 10 ESE 8 7 0,0
19.10.2018 10:00:00 8,3 7,9 8,6 8,5 10,3 10,6 16 8 22 12 SE 2,6 0 0,0
19.10.2018 09:00:00 7,2 7,0 6,9 8,5 10,4 10,6 16 8 23 13 SE 1,6 0 0,0
19.10.2018 08:00:00 7,1 6,8 6,5 8,7 10,4 10,6 17 9 23 13 ESE 1,6 0 0,0
19.10.2018 07:00:00 7,6 7,4 7,1 8,8 10,5 10,6 17 9 27 15 ESE 3,0 0 0,0
19.10.2018 06:00:00 7,5 7,5 7,4 8,9 10,5 10,6 14 8 25 14 ESE 1,6 0 0,0
19.10.2018 05:00:00 7,5 7,5 7,5 8,9 10,6 10,6 14 7 28 15 E 0,2 0 0,0
19.10.2018 04:00:00 7,6 7,6 7,5 9,0 10,6 10,6 15 8 27 15 E 0,2 0 0,0
19.10.2018 03:00:00 7,5 7,5 7,4 9,0 10,7 10,6 17 9 26 14 E 0,1 0 0,0
19.10.2018 02:00:00 7,4 7,4 7,3 9,1 10,7 10,6 18 10 26 14 E 0,1 0 0,0
19.10.2018 01:00:00 7,5 7,2 6,9 9,3 10,7 10,6 16 8 23 13 ENE 2,2 0 0,0
19.10.2018 00:00:00 7,6 6,8 6,4 9,9 10,8 10,6 17 9 24 13 NNE 10 0 0,0
18.10.2018 23:00:00 8,1 7,6 7,6 10,3 10,7 10,6 16 8 21 12 NE 6 0 0,0
18.10.2018 22:00:00 8,8 8,6 8,6 10,6 10,7 10,6 13 7 23 12 NNE 2,1 0 0,0
18.10.2018 21:00:00 9,0 8,7 8,9 10,8 10,7 10,6 21 11 27 15 NNE 2,8 0 0,0
18.10.2018 20:00:00 9,3 8,9 9,2 11,1 10,6 10,6 19 10 27 15 NNE 3,1 0 0,0
18.10.2018 19:00:00 9,6 8,9 9,3 11,6 10,6 10,6 21 12 30 16 NNE 4,6 0 0,0
18.10.2018 18:00:00 9,9 9,0 9,9 12,1 10,5 10,6 24 13 31 17 N 4,6 0 0,0
18.10.2018 17:00:00 10,5 10,0 10,9 12,5 10,3 10,6 21 11 29 16 N 2,8 0 0,0
18.10.2018 16:00:00 10,6 10,2 11,1 12,8 10,2 10,6 23 12 31 17 N 0,9 0 0,0
18.10.2018 15:00:00 11,1 10,2 11,9 13,0 10,2 10,6 18 10 23 12 N 0,6 3 0,0
18.10.2018 14:00:00 13,2 10,7 16,1 12,0 10,1 10,6 11 6 23 12 N 3,0 36 0,0
18.10.2018 13:00:00 13,8 9,9 14,2 10,7 10,1 10,6 10 5 23 12 NNE 11 59 0,0
18.10.2018 12:00:00 12,7 9,9 13,0 10,0 10,2 10,6 13 7 21 12 E 9 35 0,0
18.10.2018 11:00:00 11,6 10,0 11,4 9,1 10,2 10,6 13 7 26 14 NE 5 60 0,0
18.10.2018 10:00:00 11,4 9,9 10,8 8,5 10,3 10,6 17 9 30 16 NE 6 59 0,0
18.10.2018 09:00:00 10,5 9,7 9,4 8,2 10,3 10,6 18 10 29 16 NNE 4,9 18 0,0
18.10.2018 08:00:00 11,0 9,1 9,3 8,2 10,4 10,6 17 9 24 13 NNE 11 0 0,0
18.10.2018 07:00:00 11,0 9,1 9,3 8,2 10,5 10,6 17 9 24 13 NNE 12 0 0,0
18.10.2018 06:00:00 11,0 9,0 9,1 8,2 10,5 10,6 16 9 20 11 NNE 13 0 0,0
18.10.2018 05:00:00 10,9 8,8 8,7 8,3 10,6 10,6 16 9 19 10 N 14 0 0,0
18.10.2018 04:00:00 11,8 8,9 9,0 8,5 10,7 10,6 16 8 16 9 N 23 0 0,0
18.10.2018 03:00:00 12,0 8,7 8,7 8,8 10,7 10,6 10 6 13 7 N 25 0 0,0
18.10.2018 02:00:00 12,2 8,3 8,5 9,1 10,8 10,6 10 5 14 8 NNE 31 0 0,0
18.10.2018 01:00:00 12,1 8,5 9,4 9,4 10,8 10,6 11 6 16 8 NNE 27 0 0,0
18.10.2018 00:00:00 12,5 8,7 9,7 9,7 10,8 10,6 13 7 18 10 NNE 29 0 0,0
17.10.2018 23:00:00 12,5 8,4 10,1 10,1 10,8 10,6 13 7 19 10 NNE 32 0 0,0
17.10.2018 22:00:00 12,6 8,9 10,3 10,5 10,8 10,6 15 8 18 10 NNE 25 0 0,0
17.10.2018 21:00:00 12,8 8,9 10,3 11,0 10,7 10,6 13 7 17 9 N 25 0 0,0
17.10.2018 20:00:00 13,1 8,7 10,4 11,8 10,6 10,6 13 7 16 9 N 29 0 0,0
17.10.2018 19:00:00 13,4 8,4 11,1 12,7 10,4 10,6 12 6 14 8 N 33 0 0,0
17.10.2018 18:00:00 14,5 8,4 12,9 13,7 10,2 10,6 10 5 13 7 NNW 28 29 0,0
17.10.2018 17:00:00 16,7 9,1 15,3 14,2 10,1 10,6 10 5 14 8 N 30 51 0,0
17.10.2018 16:00:00 16,4 9,8 16,3 14,0 10,0 10,6 9 5 15 8 N 21 55 0,0
17.10.2018 15:00:00 16,9 9,7 18,5 13,1 9,9 10,6 10 5 17 9 NNW 22 58 0,0
17.10.2018 14:00:00 16,7 9,9 18,2 11,5 9,9 10,6 9 5 16 9 NW 21 59 0,0
17.10.2018 13:00:00 17,2 10,8 18,4 9,6 9,9 10,6 8 4 16 9 WNW 16 59 0,0
17.10.2018 12:00:00 16,3 9,4 14,8 8,5 10,0 10,6 - - - - - 25 58 0,0
17.10.2018 11:00:00 15,6 8,9 13,4 7,7 10,1 10,6 - - - - - 27 59 0,0
17.10.2018 10:00:00 13,8 8,8 11,5 6,9 10,2 10,6 4 2 7 4 NNE 24 60 0,0
17.10.2018 09:00:00 12,1 8,4 6,2 6,7 10,3 10,6 0 0 4 2 N 31 40 0,0
17.10.2018 08:00:00 10,9 7,3 6,4 6,9 10,4 10,6 4 2 4 2 SE 29 0 0,0
17.10.2018 07:00:00 11,1 8,5 6,9 7,2 10,5 10,6 4 2 14 8 NE 22 0 0,0
17.10.2018 06:00:00 12,0 8,5 6,5 7,5 10,6 10,6 12 6 16 8 ENE 20 0 0,0
17.10.2018 05:00:00 11,8 8,3 5,9 7,9 10,6 10,6 11 6 14 8 ENE 16 0 0,0
17.10.2018 04:00:00 11,9 8,4 7,6 8,2 10,7 10,6 9 5 14 7 NE 16 0 0,0
17.10.2018 03:00:00 12,1 8,5 6,1 8,6 10,8 10,6 10 5 16 8 ENE 14 0 0,0
17.10.2018 02:00:00 12,4 8,4 7,7 8,9 10,8 10,6 13 7 17 9 ENE 18 0 0,0
17.10.2018 01:00:00 12,6 8,3 9,1 9,3 10,9 10,6 15 8 19 10 ENE 21 0 0,0
17.10.2018 00:00:00 12,7 8,2 9,1 9,6 10,9 10,6 13 7 21 11 ENE 25 0 0,0
16.10.2018 23:00:00 13,2 8,4 10,3 10,0 10,9 10,6 15 8 21 11 ENE 29 0 0,0
16.10.2018 22:00:00 13,3 8,7 10,0 10,4 10,9 10,6 14 7 21 11 NE 27 0 0,0
16.10.2018 21:00:00 13,2 8,9 10,5 10,9 10,8 10,6 12 7 19 10 NE 23 0 0,0
16.10.2018 20:00:00 13,1 8,9 10,8 11,5 10,7 10,6 13 7 18 10 NNE 25 0 0,0
16.10.2018 19:00:00 13,1 8,7 10,8 12,2 10,6 10,6 13 7 18 10 NNE 23 0 0,0
16.10.2018 18:00:00 13,9 8,7 12,6 13,0 10,5 10,6 17 9 24 13 N 25 0 0,0
16.10.2018 17:00:00 14,5 8,5 13,6 13,6 10,3 10,6 19 10 26 14 N 25 4 0,0
16.10.2018 16:00:00 15,7 9,0 16,0 13,6 10,2 10,6 21 11 27 15 N 27 8 0,0

tt = Température de l'air
td = dewpoint
tt 5cm = Température de l'air 5cm
tt -5cm = Température de l'air -5cm
tt -20cm = Température de l'air -20cm
tt -100cm = Température de l'air -100cm
ff = Vitesse du vent
fx = gusts
dd = Direction du vent
vv = visibility
sd = Ensoleillement
rr = Quantités de précipitations

stations d'obs. à proximité